sensor_id;sensor_type;location;lat;lon;timestamp;P1;durP1;ratioP1;P2;durP2;ratioP2
53263;SDS011;39153;52.680;6.172;2022-09-14T00:00:49;8.30;;;2.80;;
53263;SDS011;39153;52.680;6.172;2022-09-14T00:03:15;7.45;;;2.40;;
53263;SDS011;39153;52.680;6.172;2022-09-14T00:05:41;7.55;;;2.50;;
53263;SDS011;39153;52.680;6.172;2022-09-14T00:08:08;6.60;;;2.53;;
53263;SDS011;39153;52.680;6.172;2022-09-14T00:10:44;6.13;;;2.17;;
53263;SDS011;39153;52.680;6.172;2022-09-14T00:13:11;5.47;;;2.40;;
53263;SDS011;39153;52.680;6.172;2022-09-14T00:15:38;8.55;;;2.63;;
53263;SDS011;39153;52.680;6.172;2022-09-14T00:18:06;7.85;;;2.80;;
53263;SDS011;39153;52.680;6.172;2022-09-14T00:20:34;6.53;;;2.63;;
53263;SDS011;39153;52.680;6.172;2022-09-14T00:23:00;6.57;;;2.83;;
53263;SDS011;39153;52.680;6.172;2022-09-14T00:25:26;5.20;;;2.47;;
53263;SDS011;39153;52.680;6.172;2022-09-14T00:27:52;4.97;;;2.60;;
53263;SDS011;39153;52.680;6.172;2022-09-14T00:30:19;6.07;;;2.80;;
53263;SDS011;39153;52.680;6.172;2022-09-14T00:32:45;6.05;;;2.95;;
53263;SDS011;39153;52.680;6.172;2022-09-14T00:35:11;5.65;;;2.85;;
53263;SDS011;39153;52.680;6.172;2022-09-14T00:37:36;5.93;;;2.80;;
53263;SDS011;39153;52.680;6.172;2022-09-14T00:40:04;6.28;;;2.90;;
53263;SDS011;39153;52.680;6.172;2022-09-14T00:42:30;7.22;;;3.03;;
53263;SDS011;39153;52.680;6.172;2022-09-14T00:44:58;5.25;;;2.80;;
53263;SDS011;39153;52.680;6.172;2022-09-14T00:47:25;6.28;;;2.55;;
53263;SDS011;39153;52.680;6.172;2022-09-14T00:49:54;6.00;;;2.65;;
53263;SDS011;39153;52.680;6.172;2022-09-14T00:52:21;7.70;;;3.30;;
53263;SDS011;39153;52.680;6.172;2022-09-14T00:54:51;8.55;;;3.58;;
53263;SDS011;39153;52.680;6.172;2022-09-14T00:57:22;6.72;;;3.42;;
53263;SDS011;39153;52.680;6.172;2022-09-14T00:59:50;9.52;;;3.85;;
53263;SDS011;39153;52.680;6.172;2022-09-14T01:02:18;6.70;;;3.33;;
53263;SDS011;39153;52.680;6.172;2022-09-14T01:04:46;6.57;;;3.30;;
53263;SDS011;39153;52.680;6.172;2022-09-14T01:12:48;9.48;;;3.20;;
53263;SDS011;39153;52.680;6.172;2022-09-14T01:18:37;7.00;;;3.28;;
53263;SDS011;39153;52.680;6.172;2022-09-14T01:21:15;8.25;;;3.42;;
53263;SDS011;39153;52.680;6.172;2022-09-14T01:23:48;6.40;;;3.25;;
53263;SDS011;39153;52.680;6.172;2022-09-14T01:32:15;5.95;;;3.20;;
53263;SDS011;39153;52.680;6.172;2022-09-14T01:34:51;6.05;;;3.28;;
53263;SDS011;39153;52.680;6.172;2022-09-14T01:37:29;5.55;;;3.03;;
53263;SDS011;39153;52.680;6.172;2022-09-14T01:40:06;5.60;;;3.13;;
53263;SDS011;39153;52.680;6.172;2022-09-14T01:42:39;7.43;;;3.30;;
53263;SDS011;39153;52.680;6.172;2022-09-14T01:45:07;7.43;;;3.40;;
53263;SDS011;39153;52.680;6.172;2022-09-14T01:47:41;6.60;;;3.40;;
53263;SDS011;39153;52.680;6.172;2022-09-14T01:50:14;8.38;;;3.70;;
53263;SDS011;39153;52.680;6.172;2022-09-14T01:53:06;4.90;;;2.85;;
53263;SDS011;39153;52.680;6.172;2022-09-14T01:55:54;7.22;;;3.53;;
53263;SDS011;39153;52.680;6.172;2022-09-14T01:58:22;6.18;;;3.50;;
53263;SDS011;39153;52.680;6.172;2022-09-14T02:00:59;4.97;;;3.00;;
53263;SDS011;39153;52.680;6.172;2022-09-14T02:03:29;7.40;;;3.58;;
53263;SDS011;39153;52.680;6.172;2022-09-14T02:06:06;6.78;;;3.10;;
53263;SDS011;39153;52.680;6.172;2022-09-14T02:09:04;6.25;;;3.35;;
53263;SDS011;39153;52.680;6.172;2022-09-14T02:11:33;5.85;;;2.90;;
53263;SDS011;39153;52.680;6.172;2022-09-14T02:13:59;5.63;;;3.10;;
53263;SDS011;39153;52.680;6.172;2022-09-14T02:16:25;4.93;;;2.83;;
53263;SDS011;39153;52.680;6.172;2022-09-14T02:18:51;6.28;;;3.22;;
53263;SDS011;39153;52.680;6.172;2022-09-14T02:21:18;6.53;;;3.28;;
53263;SDS011;39153;52.680;6.172;2022-09-14T02:23:53;6.32;;;3.00;;
53263;SDS011;39153;52.680;6.172;2022-09-14T02:26:20;6.15;;;3.20;;
53263;SDS011;39153;52.680;6.172;2022-09-14T02:28:46;6.13;;;3.05;;
53263;SDS011;39153;52.680;6.172;2022-09-14T02:42:13;8.30;;;3.58;;
53263;SDS011;39153;52.680;6.172;2022-09-14T02:44:43;6.13;;;3.55;;
53263;SDS011;39153;52.680;6.172;2022-09-14T02:50:19;6.35;;;3.28;;
53263;SDS011;39153;52.680;6.172;2022-09-14T02:56:00;6.28;;;2.78;;
53263;SDS011;39153;52.680;6.172;2022-09-14T02:58:38;4.57;;;2.60;;
53263;SDS011;39153;52.680;6.172;2022-09-14T03:01:06;8.15;;;2.92;;
53263;SDS011;39153;52.680;6.172;2022-09-14T03:03:33;6.10;;;3.10;;
53263;SDS011;39153;52.680;6.172;2022-09-14T03:05:59;3.90;;;2.60;;
53263;SDS011;39153;52.680;6.172;2022-09-14T03:08:25;5.47;;;3.10;;
53263;SDS011;39153;52.680;6.172;2022-09-14T03:10:51;3.95;;;2.42;;
53263;SDS011;39153;52.680;6.172;2022-09-14T03:13:17;5.22;;;2.92;;
53263;SDS011;39153;52.680;6.172;2022-09-14T03:15:42;5.97;;;2.95;;
53263;SDS011;39153;52.680;6.172;2022-09-14T03:18:09;6.55;;;3.05;;
53263;SDS011;39153;52.680;6.172;2022-09-14T03:20:35;4.70;;;3.17;;
53263;SDS011;39153;52.680;6.172;2022-09-14T03:23:01;5.78;;;3.20;;
53263;SDS011;39153;52.680;6.172;2022-09-14T03:25:27;6.07;;;3.38;;
53263;SDS011;39153;52.680;6.172;2022-09-14T03:27:57;4.45;;;2.78;;
53263;SDS011;39153;52.680;6.172;2022-09-14T03:30:24;6.15;;;3.13;;
53263;SDS011;39153;52.680;6.172;2022-09-14T03:32:51;6.03;;;3.22;;
53263;SDS011;39153;52.680;6.172;2022-09-14T03:35:17;7.15;;;3.67;;
53263;SDS011;39153;52.680;6.172;2022-09-14T03:37:43;7.00;;;3.35;;
53263;SDS011;39153;52.680;6.172;2022-09-14T03:40:11;4.68;;;3.60;;
53263;SDS011;39153;52.680;6.172;2022-09-14T03:42:42;5.55;;;3.75;;
53263;SDS011;39153;52.680;6.172;2022-09-14T03:45:09;5.75;;;3.67;;
53263;SDS011;39153;52.680;6.172;2022-09-14T03:47:35;5.40;;;3.78;;
53263;SDS011;39153;52.680;6.172;2022-09-14T03:50:01;7.15;;;3.95;;
53263;SDS011;39153;52.680;6.172;2022-09-14T03:52:27;6.72;;;3.80;;
53263;SDS011;39153;52.680;6.172;2022-09-14T03:54:53;7.82;;;4.28;;
53263;SDS011;39153;52.680;6.172;2022-09-14T03:57:18;9.07;;;4.53;;
53263;SDS011;39153;52.680;6.172;2022-09-14T03:59:44;6.85;;;4.40;;
53263;SDS011;39153;52.680;6.172;2022-09-14T04:02:10;5.90;;;3.85;;
53263;SDS011;39153;52.680;6.172;2022-09-14T04:04:36;4.93;;;3.67;;
53263;SDS011;39153;52.680;6.172;2022-09-14T04:07:01;6.55;;;4.28;;
53263;SDS011;39153;52.680;6.172;2022-09-14T04:09:27;5.43;;;3.58;;
53263;SDS011;39153;52.680;6.172;2022-09-14T04:11:53;5.55;;;3.95;;
53263;SDS011;39153;52.680;6.172;2022-09-14T04:14:18;5.30;;;3.70;;
53263;SDS011;39153;52.680;6.172;2022-09-14T04:16:44;5.18;;;3.42;;
53263;SDS011;39153;52.680;6.172;2022-09-14T04:19:10;6.35;;;3.50;;
53263;SDS011;39153;52.680;6.172;2022-09-14T04:21:36;5.75;;;3.20;;
53263;SDS011;39153;52.680;6.172;2022-09-14T04:24:02;5.45;;;3.30;;
53263;SDS011;39153;52.680;6.172;2022-09-14T04:26:29;5.10;;;3.42;;
53263;SDS011;39153;52.680;6.172;2022-09-14T04:28:55;5.47;;;3.17;;
53263;SDS011;39153;52.680;6.172;2022-09-14T04:31:21;5.20;;;3.15;;
53263;SDS011;39153;52.680;6.172;2022-09-14T04:33:48;7.75;;;3.50;;
53263;SDS011;39153;52.680;6.172;2022-09-14T04:36:19;6.00;;;3.38;;
53263;SDS011;39153;52.680;6.172;2022-09-14T04:38:46;8.30;;;3.85;;
53263;SDS011;39153;52.680;6.172;2022-09-14T04:41:14;7.25;;;3.58;;
53263;SDS011;39153;52.680;6.172;2022-09-14T04:43:42;8.05;;;3.85;;
53263;SDS011;39153;52.680;6.172;2022-09-14T04:46:10;7.68;;;3.80;;
53263;SDS011;39153;52.680;6.172;2022-09-14T04:48:38;6.97;;;3.38;;
53263;SDS011;39153;52.680;6.172;2022-09-14T04:51:04;6.00;;;3.45;;
53263;SDS011;39153;52.680;6.172;2022-09-14T04:53:33;6.28;;;3.70;;
53263;SDS011;39153;52.680;6.172;2022-09-14T04:56:04;6.80;;;3.45;;
53263;SDS011;39153;52.680;6.172;2022-09-14T04:58:32;7.28;;;3.60;;
53263;SDS011;39153;52.680;6.172;2022-09-14T05:01:02;7.90;;;3.65;;
53263;SDS011;39153;52.680;6.172;2022-09-14T05:03:29;7.25;;;3.53;;
53263;SDS011;39153;52.680;6.172;2022-09-14T05:05:55;6.90;;;3.58;;
53263;SDS011;39153;52.680;6.172;2022-09-14T05:08:26;8.35;;;3.85;;
53263;SDS011;39153;52.680;6.172;2022-09-14T05:10:55;10.55;;;4.28;;
53263;SDS011;39153;52.680;6.172;2022-09-14T05:13:21;8.60;;;4.07;;
53263;SDS011;39153;52.680;6.172;2022-09-14T05:15:48;6.93;;;4.10;;
53263;SDS011;39153;52.680;6.172;2022-09-14T05:18:14;7.18;;;4.20;;
53263;SDS011;39153;52.680;6.172;2022-09-14T05:20:40;6.85;;;4.50;;
53263;SDS011;39153;52.680;6.172;2022-09-14T05:23:06;7.60;;;4.43;;
53263;SDS011;39153;52.680;6.172;2022-09-14T05:25:32;6.40;;;4.70;;
53263;SDS011;39153;52.680;6.172;2022-09-14T05:27:57;7.20;;;5.07;;
53263;SDS011;39153;52.680;6.172;2022-09-14T05:30:23;6.97;;;5.18;;
53263;SDS011;39153;52.680;6.172;2022-09-14T05:32:49;9.93;;;5.60;;
53263;SDS011;39153;52.680;6.172;2022-09-14T05:35:14;8.00;;;5.18;;
53263;SDS011;39153;52.680;6.172;2022-09-14T05:37:40;7.18;;;4.60;;
53263;SDS011;39153;52.680;6.172;2022-09-14T05:40:06;7.53;;;5.07;;
53263;SDS011;39153;52.680;6.172;2022-09-14T05:42:33;8.25;;;5.82;;
53263;SDS011;39153;52.680;6.172;2022-09-14T05:44:59;8.73;;;5.32;;
53263;SDS011;39153;52.680;6.172;2022-09-14T05:47:27;7.45;;;4.90;;
53263;SDS011;39153;52.680;6.172;2022-09-14T05:49:54;8.27;;;5.28;;
53263;SDS011;39153;52.680;6.172;2022-09-14T05:52:20;7.32;;;5.35;;
53263;SDS011;39153;52.680;6.172;2022-09-14T05:54:46;6.68;;;4.95;;
53263;SDS011;39153;52.680;6.172;2022-09-14T05:57:12;9.30;;;5.60;;
53263;SDS011;39153;52.680;6.172;2022-09-14T05:59:37;9.77;;;5.25;;
53263;SDS011;39153;52.680;6.172;2022-09-14T06:02:03;9.18;;;5.40;;
53263;SDS011;39153;52.680;6.172;2022-09-14T06:04:29;7.68;;;4.97;;
53263;SDS011;39153;52.680;6.172;2022-09-14T06:06:54;8.27;;;5.30;;
53263;SDS011;39153;52.680;6.172;2022-09-14T06:09:20;8.98;;;5.53;;
53263;SDS011;39153;52.680;6.172;2022-09-14T06:11:46;9.60;;;5.45;;
53263;SDS011;39153;52.680;6.172;2022-09-14T06:14:12;7.93;;;5.40;;
53263;SDS011;39153;52.680;6.172;2022-09-14T06:16:37;8.75;;;5.38;;
53263;SDS011;39153;52.680;6.172;2022-09-14T06:19:03;8.80;;;5.05;;
53263;SDS011;39153;52.680;6.172;2022-09-14T06:21:30;9.50;;;5.30;;
53263;SDS011;39153;52.680;6.172;2022-09-14T06:23:58;8.30;;;5.65;;
53263;SDS011;39153;52.680;6.172;2022-09-14T06:26:24;9.52;;;6.13;;
53263;SDS011;39153;52.680;6.172;2022-09-14T06:28:50;8.45;;;6.13;;
53263;SDS011;39153;52.680;6.172;2022-09-14T06:31:17;11.00;;;6.00;;
53263;SDS011;39153;52.680;6.172;2022-09-14T06:33:46;10.15;;;5.60;;
53263;SDS011;39153;52.680;6.172;2022-09-14T06:36:15;11.00;;;6.07;;
53263;SDS011;39153;52.680;6.172;2022-09-14T06:38:48;10.07;;;5.80;;
53263;SDS011;39153;52.680;6.172;2022-09-14T06:41:15;14.32;;;5.90;;
53263;SDS011;39153;52.680;6.172;2022-09-14T06:43:44;6.60;;;5.22;;
53263;SDS011;39153;52.680;6.172;2022-09-14T06:46:21;7.53;;;5.65;;
53263;SDS011;39153;52.680;6.172;2022-09-14T06:48:50;7.93;;;5.63;;
53263;SDS011;39153;52.680;6.172;2022-09-14T06:51:38;9.13;;;5.38;;
53263;SDS011;39153;52.680;6.172;2022-09-14T06:54:06;9.38;;;5.75;;
53263;SDS011;39153;52.680;6.172;2022-09-14T06:56:33;9.63;;;5.45;;
53263;SDS011;39153;52.680;6.172;2022-09-14T06:59:00;9.52;;;5.18;;
53263;SDS011;39153;52.680;6.172;2022-09-14T07:01:26;10.18;;;5.38;;
53263;SDS011;39153;52.680;6.172;2022-09-14T07:03:54;9.68;;;5.25;;
53263;SDS011;39153;52.680;6.172;2022-09-14T07:06:21;10.90;;;5.20;;
53263;SDS011;39153;52.680;6.172;2022-09-14T07:08:48;12.63;;;6.90;;
53263;SDS011;39153;52.680;6.172;2022-09-14T07:11:17;10.32;;;5.85;;
53263;SDS011;39153;52.680;6.172;2022-09-14T07:13:44;12.30;;;5.60;;
53263;SDS011;39153;52.680;6.172;2022-09-14T07:16:12;10.10;;;5.65;;
53263;SDS011;39153;52.680;6.172;2022-09-14T07:18:38;9.00;;;5.82;;
53263;SDS011;39153;52.680;6.172;2022-09-14T07:21:06;10.95;;;6.07;;
53263;SDS011;39153;52.680;6.172;2022-09-14T07:23:37;12.75;;;6.35;;
53263;SDS011;39153;52.680;6.172;2022-09-14T07:26:05;10.40;;;5.70;;
53263;SDS011;39153;52.680;6.172;2022-09-14T07:28:35;12.77;;;5.90;;
53263;SDS011;39153;52.680;6.172;2022-09-14T07:31:02;12.13;;;5.40;;
53263;SDS011;39153;52.680;6.172;2022-09-14T07:33:28;10.07;;;5.47;;
53263;SDS011;39153;52.680;6.172;2022-09-14T07:36:02;10.90;;;5.90;;
53263;SDS011;39153;52.680;6.172;2022-09-14T07:38:29;9.32;;;4.68;;
53263;SDS011;39153;52.680;6.172;2022-09-14T07:40:58;12.02;;;4.85;;
53263;SDS011;39153;52.680;6.172;2022-09-14T07:43:24;9.05;;;4.97;;
53263;SDS011;39153;52.680;6.172;2022-09-14T07:45:50;12.55;;;4.72;;
53263;SDS011;39153;52.680;6.172;2022-09-14T07:48:16;8.50;;;4.15;;
53263;SDS011;39153;52.680;6.172;2022-09-14T07:50:42;10.55;;;4.32;;
53263;SDS011;39153;52.680;6.172;2022-09-14T07:53:07;8.52;;;3.92;;
53263;SDS011;39153;52.680;6.172;2022-09-14T07:55:36;11.35;;;4.38;;
53263;SDS011;39153;52.680;6.172;2022-09-14T07:58:03;9.68;;;3.97;;
53263;SDS011;39153;52.680;6.172;2022-09-14T08:00:28;7.97;;;3.50;;
53263;SDS011;39153;52.680;6.172;2022-09-14T08:02:54;7.93;;;3.97;;
53263;SDS011;39153;52.680;6.172;2022-09-14T08:05:22;10.18;;;4.53;;
53263;SDS011;39153;52.680;6.172;2022-09-14T08:07:54;16.52;;;4.63;;
53263;SDS011;39153;52.680;6.172;2022-09-14T08:10:21;9.38;;;4.20;;
53263;SDS011;39153;52.680;6.172;2022-09-14T08:12:51;11.77;;;4.30;;
53263;SDS011;39153;52.680;6.172;2022-09-14T08:15:18;10.45;;;4.10;;
53263;SDS011;39153;52.680;6.172;2022-09-14T08:17:44;7.30;;;3.15;;
53263;SDS011;39153;52.680;6.172;2022-09-14T08:20:10;10.32;;;2.80;;
53263;SDS011;39153;52.680;6.172;2022-09-14T08:22:36;9.20;;;3.25;;
53263;SDS011;39153;52.680;6.172;2022-09-14T08:25:01;7.30;;;3.53;;
53263;SDS011;39153;52.680;6.172;2022-09-14T08:27:27;12.50;;;3.88;;
53263;SDS011;39153;52.680;6.172;2022-09-14T08:29:53;8.32;;;2.90;;
53263;SDS011;39153;52.680;6.172;2022-09-14T08:32:18;7.72;;;2.30;;
53263;SDS011;39153;52.680;6.172;2022-09-14T08:34:44;10.70;;;3.20;;
53263;SDS011;39153;52.680;6.172;2022-09-14T08:37:12;9.20;;;3.05;;
53263;SDS011;39153;52.680;6.172;2022-09-14T08:39:39;8.63;;;3.15;;
53263;SDS011;39153;52.680;6.172;2022-09-14T08:42:05;8.50;;;2.90;;
53263;SDS011;39153;52.680;6.172;2022-09-14T08:44:51;8.48;;;2.58;;
53263;SDS011;39153;52.680;6.172;2022-09-14T08:47:32;9.75;;;2.33;;
53263;SDS011;39153;52.680;6.172;2022-09-14T08:50:16;6.53;;;1.80;;
53263;SDS011;39153;52.680;6.172;2022-09-14T08:52:45;8.48;;;1.40;;
53263;SDS011;39153;52.680;6.172;2022-09-14T09:00:50;7.78;;;1.52;;
53263;SDS011;39153;52.680;6.172;2022-09-14T09:04:03;6.53;;;1.27;;
53263;SDS011;39153;52.680;6.172;2022-09-14T09:06:59;7.10;;;1.50;;
53263;SDS011;39153;52.680;6.172;2022-09-14T09:09:45;5.63;;;1.30;;
53263;SDS011;39153;52.680;6.172;2022-09-14T09:12:26;4.88;;;1.00;;
53263;SDS011;39153;52.680;6.172;2022-09-14T09:15:24;5.38;;;1.10;;
53263;SDS011;39153;52.680;6.172;2022-09-14T09:18:40;4.75;;;0.93;;
53263;SDS011;39153;52.680;6.172;2022-09-14T09:23:45;7.80;;;1.25;;
53263;SDS011;39153;52.680;6.172;2022-09-14T09:26:29;4.80;;;0.80;;
53263;SDS011;39153;52.680;6.172;2022-09-14T09:28:57;5.97;;;0.82;;
53263;SDS011;39153;52.680;6.172;2022-09-14T09:31:35;4.88;;;0.98;;
53263;SDS011;39153;52.680;6.172;2022-09-14T09:34:16;6.63;;;0.93;;
53263;SDS011;39153;52.680;6.172;2022-09-14T09:36:51;5.50;;;0.90;;
53263;SDS011;39153;52.680;6.172;2022-09-14T09:39:20;4.82;;;0.88;;
53263;SDS011;39153;52.680;6.172;2022-09-14T09:41:55;3.58;;;1.00;;
53263;SDS011;39153;52.680;6.172;2022-09-14T09:44:25;5.82;;;1.02;;
53263;SDS011;39153;52.680;6.172;2022-09-14T09:46:52;4.38;;;0.82;;
53263;SDS011;39153;52.680;6.172;2022-09-14T09:49:31;5.07;;;0.60;;
53263;SDS011;39153;52.680;6.172;2022-09-14T09:52:09;3.72;;;0.80;;
53263;SDS011;39153;52.680;6.172;2022-09-14T09:54:37;4.88;;;0.70;;
53263;SDS011;39153;52.680;6.172;2022-09-14T09:57:06;4.35;;;0.80;;
53263;SDS011;39153;52.680;6.172;2022-09-14T10:02:50;5.40;;;0.70;;
53263;SDS011;39153;52.680;6.172;2022-09-14T10:05:18;7.50;;;0.95;;
53263;SDS011;39153;52.680;6.172;2022-09-14T10:10:38;4.03;;;0.70;;
53263;SDS011;39153;52.680;6.172;2022-09-14T10:13:17;3.13;;;0.60;;
53263;SDS011;39153;52.680;6.172;2022-09-14T10:16:03;4.07;;;0.70;;
53263;SDS011;39153;52.680;6.172;2022-09-14T10:18:47;3.75;;;0.75;;
53263;SDS011;39153;52.680;6.172;2022-09-14T10:21:15;4.32;;;0.70;;
53263;SDS011;39153;52.680;6.172;2022-09-14T10:23:43;3.70;;;0.73;;
53263;SDS011;39153;52.680;6.172;2022-09-14T10:28:34;3.58;;;0.80;;
53263;SDS011;39153;52.680;6.172;2022-09-14T10:31:03;3.85;;;0.60;;
53263;SDS011;39153;52.680;6.172;2022-09-14T10:33:32;2.47;;;0.57;;
53263;SDS011;39153;52.680;6.172;2022-09-14T10:38:50;4.40;;;0.82;;
53263;SDS011;39153;52.680;6.172;2022-09-14T10:52:47;4.20;;;0.82;;
53263;SDS011;39153;52.680;6.172;2022-09-14T11:00:28;5.82;;;0.90;;
53263;SDS011;39153;52.680;6.172;2022-09-14T11:05:45;2.88;;;0.75;;
53263;SDS011;39153;52.680;6.172;2022-09-14T11:08:32;3.08;;;0.65;;
53263;SDS011;39153;52.680;6.172;2022-09-14T11:11:10;2.78;;;0.70;;
53263;SDS011;39153;52.680;6.172;2022-09-14T11:25:21;3.37;;;0.63;;
53263;SDS011;39153;52.680;6.172;2022-09-14T11:27:56;1.30;;;0.35;;
53263;SDS011;39153;52.680;6.172;2022-09-14T11:30:26;2.88;;;0.63;;
53263;SDS011;39153;52.680;6.172;2022-09-14T11:33:03;5.95;;;0.70;;
53263;SDS011;39153;52.680;6.172;2022-09-14T11:35:40;4.60;;;0.60;;
53263;SDS011;39153;52.680;6.172;2022-09-14T11:43:48;4.07;;;0.60;;
53263;SDS011;39153;52.680;6.172;2022-09-14T11:46:24;3.10;;;0.60;;
53263;SDS011;39153;52.680;6.172;2022-09-14T11:52:02;1.70;;;0.47;;
53263;SDS011;39153;52.680;6.172;2022-09-14T11:54:38;4.10;;;0.65;;
53263;SDS011;39153;52.680;6.172;2022-09-14T11:57:04;4.38;;;0.68;;
53263;SDS011;39153;52.680;6.172;2022-09-14T12:17:52;1.92;;;0.43;;
53263;SDS011;39153;52.680;6.172;2022-09-14T12:20:39;6.15;;;0.50;;
53263;SDS011;39153;52.680;6.172;2022-09-14T12:23:17;2.35;;;0.40;;
53263;SDS011;39153;52.680;6.172;2022-09-14T12:28:38;3.28;;;0.60;;
53263;SDS011;39153;52.680;6.172;2022-09-14T12:35:59;4.53;;;0.57;;
53263;SDS011;39153;52.680;6.172;2022-09-14T12:46:08;2.97;;;0.50;;
53263;SDS011;39153;52.680;6.172;2022-09-14T12:59:10;3.92;;;0.57;;
53263;SDS011;39153;52.680;6.172;2022-09-14T13:05:25;2.40;;;0.57;;
53263;SDS011;39153;52.680;6.172;2022-09-14T13:07:53;2.58;;;0.52;;
53263;SDS011;39153;52.680;6.172;2022-09-14T13:10:24;4.85;;;0.75;;
53263;SDS011;39153;52.680;6.172;2022-09-14T13:13:02;4.65;;;0.70;;
53263;SDS011;39153;52.680;6.172;2022-09-14T13:18:04;2.05;;;0.63;;
53263;SDS011;39153;52.680;6.172;2022-09-14T13:20:36;1.60;;;0.40;;
53263;SDS011;39153;52.680;6.172;2022-09-14T13:23:02;2.55;;;0.50;;
53263;SDS011;39153;52.680;6.172;2022-09-14T13:25:42;1.80;;;0.47;;
53263;SDS011;39153;52.680;6.172;2022-09-14T13:28:16;5.20;;;0.55;;
53263;SDS011;39153;52.680;6.172;2022-09-14T13:30:53;2.72;;;0.52;;
53263;SDS011;39153;52.680;6.172;2022-09-14T13:33:21;3.15;;;0.68;;
53263;SDS011;39153;52.680;6.172;2022-09-14T13:35:49;5.07;;;0.70;;
53263;SDS011;39153;52.680;6.172;2022-09-14T13:38:18;3.75;;;1.00;;
53263;SDS011;39153;52.680;6.172;2022-09-14T13:40:55;2.08;;;0.52;;
53263;SDS011;39153;52.680;6.172;2022-09-14T13:43:27;2.58;;;0.60;;
53263;SDS011;39153;52.680;6.172;2022-09-14T13:45:53;3.60;;;0.70;;
53263;SDS011;39153;52.680;6.172;2022-09-14T13:48:20;4.05;;;1.20;;
53263;SDS011;39153;52.680;6.172;2022-09-14T13:50:47;5.53;;;1.30;;
53263;SDS011;39153;52.680;6.172;2022-09-14T14:01:31;6.97;;;2.45;;
53263;SDS011;39153;52.680;6.172;2022-09-14T14:04:21;6.10;;;2.60;;
53263;SDS011;39153;52.680;6.172;2022-09-14T14:07:04;6.95;;;2.40;;
53263;SDS011;39153;52.680;6.172;2022-09-14T14:09:51;8.10;;;2.50;;
53263;SDS011;39153;52.680;6.172;2022-09-14T14:12:37;7.07;;;2.40;;
53263;SDS011;39153;52.680;6.172;2022-09-14T14:17:36;7.95;;;2.53;;
53263;SDS011;39153;52.680;6.172;2022-09-14T14:25:33;6.50;;;2.40;;
53263;SDS011;39153;52.680;6.172;2022-09-14T14:28:00;6.10;;;2.35;;
53263;SDS011;39153;52.680;6.172;2022-09-14T14:30:27;5.05;;;1.60;;
53263;SDS011;39153;52.680;6.172;2022-09-14T14:32:54;4.72;;;1.58;;
53263;SDS011;39153;52.680;6.172;2022-09-14T14:35:23;5.32;;;1.38;;
53263;SDS011;39153;52.680;6.172;2022-09-14T14:37:52;5.85;;;2.40;;
53263;SDS011;39153;52.680;6.172;2022-09-14T14:40:19;17.42;;;6.30;;
53263;SDS011;39153;52.680;6.172;2022-09-14T14:42:45;14.20;;;5.88;;
53263;SDS011;39153;52.680;6.172;2022-09-14T14:45:16;6.85;;;2.88;;
53263;SDS011;39153;52.680;6.172;2022-09-14T14:47:45;5.95;;;1.92;;
53263;SDS011;39153;52.680;6.172;2022-09-14T14:50:15;8.63;;;1.38;;
53263;SDS011;39153;52.680;6.172;2022-09-14T14:52:42;4.40;;;0.90;;
53263;SDS011;39153;52.680;6.172;2022-09-14T14:55:08;4.07;;;0.57;;
53263;SDS011;39153;52.680;6.172;2022-09-14T14:57:34;5.13;;;0.90;;
53263;SDS011;39153;52.680;6.172;2022-09-14T15:00:03;3.95;;;0.70;;
53263;SDS011;39153;52.680;6.172;2022-09-14T15:02:31;4.85;;;1.05;;
53263;SDS011;39153;52.680;6.172;2022-09-14T15:04:57;5.32;;;1.00;;
53263;SDS011;39153;52.680;6.172;2022-09-14T15:07:22;7.93;;;0.73;;
53263;SDS011;39153;52.680;6.172;2022-09-14T15:09:48;5.60;;;0.85;;
53263;SDS011;39153;52.680;6.172;2022-09-14T15:12:13;4.65;;;0.80;;
53263;SDS011;39153;52.680;6.172;2022-09-14T15:14:39;4.50;;;0.85;;
53263;SDS011;39153;52.680;6.172;2022-09-14T15:17:05;4.20;;;0.73;;
53263;SDS011;39153;52.680;6.172;2022-09-14T15:19:31;6.47;;;0.88;;
53263;SDS011;39153;52.680;6.172;2022-09-14T15:21:56;5.30;;;0.90;;
53263;SDS011;39153;52.680;6.172;2022-09-14T15:24:22;4.05;;;0.60;;
53263;SDS011;39153;52.680;6.172;2022-09-14T15:26:48;2.22;;;0.47;;
53263;SDS011;39153;52.680;6.172;2022-09-14T15:29:13;2.25;;;0.50;;
53263;SDS011;39153;52.680;6.172;2022-09-14T15:31:42;4.68;;;1.00;;
53263;SDS011;39153;52.680;6.172;2022-09-14T15:34:08;4.20;;;0.70;;
53263;SDS011;39153;52.680;6.172;2022-09-14T15:36:34;3.63;;;0.80;;
53263;SDS011;39153;52.680;6.172;2022-09-14T15:39:00;5.55;;;0.88;;
53263;SDS011;39153;52.680;6.172;2022-09-14T15:41:25;4.20;;;0.80;;
53263;SDS011;39153;52.680;6.172;2022-09-14T15:43:51;5.40;;;0.88;;
53263;SDS011;39153;52.680;6.172;2022-09-14T15:46:17;5.40;;;0.80;;
53263;SDS011;39153;52.680;6.172;2022-09-14T15:48:42;4.78;;;0.88;;
53263;SDS011;39153;52.680;6.172;2022-09-14T15:51:08;5.55;;;0.82;;
53263;SDS011;39153;52.680;6.172;2022-09-14T15:53:36;5.30;;;0.70;;
53263;SDS011;39153;52.680;6.172;2022-09-14T15:56:08;3.75;;;0.63;;
53263;SDS011;39153;52.680;6.172;2022-09-14T15:58:34;4.50;;;0.65;;
53263;SDS011;39153;52.680;6.172;2022-09-14T16:01:05;5.15;;;0.88;;
53263;SDS011;39153;52.680;6.172;2022-09-14T16:03:38;5.55;;;0.50;;
53263;SDS011;39153;52.680;6.172;2022-09-14T16:06:07;4.63;;;0.50;;
53263;SDS011;39153;52.680;6.172;2022-09-14T16:08:34;3.45;;;0.52;;
53263;SDS011;39153;52.680;6.172;2022-09-14T16:11:01;4.65;;;0.80;;
53263;SDS011;39153;52.680;6.172;2022-09-14T16:13:28;3.30;;;0.80;;
53263;SDS011;39153;52.680;6.172;2022-09-14T16:16:10;5.00;;;1.10;;
53263;SDS011;39153;52.680;6.172;2022-09-14T16:18:39;3.85;;;0.70;;
53263;SDS011;39153;52.680;6.172;2022-09-14T16:21:06;2.90;;;0.65;;
53263;SDS011;39153;52.680;6.172;2022-09-14T16:23:33;5.18;;;0.70;;
53263;SDS011;39153;52.680;6.172;2022-09-14T16:26:03;3.40;;;0.70;;
53263;SDS011;39153;52.680;6.172;2022-09-14T16:28:30;3.40;;;0.50;;
53263;SDS011;39153;52.680;6.172;2022-09-14T16:31:03;3.65;;;0.63;;
53263;SDS011;39153;52.680;6.172;2022-09-14T16:33:40;3.72;;;0.70;;
53263;SDS011;39153;52.680;6.172;2022-09-14T16:36:09;3.38;;;0.60;;
53263;SDS011;39153;52.680;6.172;2022-09-14T16:38:37;3.15;;;0.50;;
53263;SDS011;39153;52.680;6.172;2022-09-14T16:41:03;4.18;;;0.80;;
53263;SDS011;39153;52.680;6.172;2022-09-14T16:43:30;4.13;;;0.70;;
53263;SDS011;39153;52.680;6.172;2022-09-14T16:46:03;6.80;;;1.00;;
53263;SDS011;39153;52.680;6.172;2022-09-14T16:48:34;2.53;;;0.88;;
53263;SDS011;39153;52.680;6.172;2022-09-14T16:51:03;3.70;;;0.70;;
53263;SDS011;39153;52.680;6.172;2022-09-14T16:53:29;8.13;;;0.90;;
53263;SDS011;39153;52.680;6.172;2022-09-14T16:58:34;3.60;;;0.80;;
53263;SDS011;39153;52.680;6.172;2022-09-14T17:01:04;2.88;;;0.85;;
53263;SDS011;39153;52.680;6.172;2022-09-14T17:03:32;3.95;;;0.77;;
53263;SDS011;39153;52.680;6.172;2022-09-14T17:06:00;6.10;;;0.70;;
53263;SDS011;39153;52.680;6.172;2022-09-14T17:08:27;1.77;;;0.50;;
53263;SDS011;39153;52.680;6.172;2022-09-14T17:10:53;3.90;;;0.88;;
53263;SDS011;39153;52.680;6.172;2022-09-14T17:13:19;3.42;;;0.82;;
53263;SDS011;39153;52.680;6.172;2022-09-14T17:15:44;6.20;;;1.38;;
53263;SDS011;39153;52.680;6.172;2022-09-14T17:18:10;4.25;;;1.17;;
53263;SDS011;39153;52.680;6.172;2022-09-14T17:20:36;7.25;;;2.00;;
53263;SDS011;39153;52.680;6.172;2022-09-14T17:23:01;6.30;;;2.03;;
53263;SDS011;39153;52.680;6.172;2022-09-14T17:25:27;7.88;;;2.30;;
53263;SDS011;39153;52.680;6.172;2022-09-14T17:27:53;7.28;;;2.63;;
53263;SDS011;39153;52.680;6.172;2022-09-14T17:30:18;9.50;;;2.92;;
53263;SDS011;39153;52.680;6.172;2022-09-14T17:32:44;7.50;;;2.75;;
53263;SDS011;39153;52.680;6.172;2022-09-14T17:35:10;9.48;;;3.00;;
53263;SDS011;39153;52.680;6.172;2022-09-14T17:37:35;9.13;;;3.00;;
53263;SDS011;39153;52.680;6.172;2022-09-14T17:40:01;7.70;;;3.10;;